Time;durP1;ratioP1;P1;durP2;ratioP2;P2;SDS_P1;SDS_P2;PMS_P1;PMS_P2;Temp;Humidity;BMP_temperature;BMP_pressure;BME280_temperature;BME280_humidity;BME280_pressure;Samples;Min_cycle;Max_cycle;Signal;HPM_P1;HPM_P2
2023/11/19 00:00:28;;;;;;;1.40;1.00;;;;;;;;;;5019095;28;20531;-84
2023/11/19 00:02:54;;;;;;;1.35;0.80;;;;;;;;;;5036210;28;20205;-83
2023/11/19 00:05:20;;;;;;;1.20;0.98;;;;;;;;;;5024363;28;20232;-83
2023/11/19 00:07:46;;;;;;;1.02;0.65;;;;;;;;;;5023878;28;20177;-83
2023/11/19 00:10:13;;;;;;;0.90;0.70;;;;;;;;;;5001765;28;20261;-83
2023/11/19 00:12:44;;;;;;;1.00;0.70;;;;;;;;;;5020819;28;20235;-83
2023/11/19 00:15:11;;;;;;;1.00;0.70;;;;;;;;;;5037885;28;20182;-83
2023/11/19 00:17:40;;;;;;;1.05;0.70;;;;;;;;;;5026963;28;20188;-83
2023/11/19 00:20:07;;;;;;;1.40;0.90;;;;;;;;;;5016443;28;20197;-83
2023/11/19 00:22:33;;;;;;;0.98;0.70;;;;;;;;;;5028225;28;20220;-82
2023/11/19 00:24:59;;;;;;;1.10;0.80;;;;;;;;;;5023675;28;20645;-83
2023/11/19 00:27:25;;;;;;;0.80;0.52;;;;;;;;;;5044496;28;20442;-83
2023/11/19 00:29:51;;;;;;;4.53;0.68;;;;;;;;;;5050331;28;20229;-84
2023/11/19 00:32:18;;;;;;;0.88;0.60;;;;;;;;;;5039469;28;20241;-84
2023/11/19 00:34:45;;;;;;;0.70;0.50;;;;;;;;;;5003378;28;20189;-82
2023/11/19 00:37:11;;;;;;;0.68;0.50;;;;;;;;;;5032295;28;20197;-83
2023/11/19 00:39:37;;;;;;;0.70;0.52;;;;;;;;;;5045747;28;20178;-83
2023/11/19 00:42:03;;;;;;;0.73;0.60;;;;;;;;;;5018827;28;20998;-84
2023/11/19 00:44:29;;;;;;;2.45;0.55;;;;;;;;;;5044393;28;20448;-83
2023/11/19 00:46:55;;;;;;;0.70;0.60;;;;;;;;;;5007054;28;20205;-82
2023/11/19 00:49:21;;;;;;;0.70;0.53;;;;;;;;;;5025071;28;20837;-82
2023/11/19 00:51:47;;;;;;;0.73;0.50;;;;;;;;;;5023169;28;20435;-82
2023/11/19 00:54:13;;;;;;;1.10;0.50;;;;;;;;;;5038293;28;20468;-82
2023/11/19 00:56:39;;;;;;;0.80;0.60;;;;;;;;;;5020094;28;20460;-83
2023/11/19 00:59:05;;;;;;;2.28;0.70;;;;;;;;;;5005445;28;20190;-83
2023/11/19 01:01:31;;;;;;;0.90;0.52;;;;;;;;;;5022723;28;20188;-82
2023/11/19 01:03:57;;;;;;;1.73;0.60;;;;;;;;;;5046116;28;20248;-83
2023/11/19 01:06:27;;;;;;;0.70;0.60;;;;;;;;;;5008719;28;21070;-82
2023/11/19 01:08:53;;;;;;;1.25;0.90;;;;;;;;;;5015157;28;20788;-82
2023/11/19 01:11:22;;;;;;;0.83;0.60;;;;;;;;;;5021541;28;20265;-83
2023/11/19 01:13:48;;;;;;;1.92;0.98;;;;;;;;;;5032989;28;20468;-82
2023/11/19 01:16:14;;;;;;;0.85;0.60;;;;;;;;;;5024460;28;20206;-82
2023/11/19 01:18:40;;;;;;;3.97;0.70;;;;;;;;;;5024654;28;20200;-81
2023/11/19 01:21:06;;;;;;;1.57;0.63;;;;;;;;;;5037681;28;20783;-82
2023/11/19 01:23:32;;;;;;;0.90;0.70;;;;;;;;;;5006476;28;20433;-82
2023/11/19 01:25:58;;;;;;;1.00;0.60;;;;;;;;;;5017734;28;20456;-81
2023/11/19 01:28:24;;;;;;;1.42;0.70;;;;;;;;;;5035746;28;20304;-82
2023/11/19 01:30:54;;;;;;;0.83;0.70;;;;;;;;;;5019302;28;20707;-81
2023/11/19 01:33:21;;;;;;;2.80;0.75;;;;;;;;;;5004551;28;20521;-82
2023/11/19 01:35:47;;;;;;;1.08;0.82;;;;;;;;;;5041148;28;20197;-81
2023/11/19 01:38:13;;;;;;;3.37;1.00;;;;;;;;;;5040189;28;20188;-82
2023/11/19 01:40:39;;;;;;;3.40;1.30;;;;;;;;;;5021349;28;20432;-81
2023/11/19 01:43:05;;;;;;;2.73;1.63;;;;;;;;;;5006277;28;20432;-82
2023/11/19 01:45:32;;;;;;;2.00;1.43;;;;;;;;;;5023059;28;20423;-82
2023/11/19 01:47:59;;;;;;;2.75;1.45;;;;;;;;;;5040264;28;20417;-81
2023/11/19 01:50:25;;;;;;;1.20;1.10;;;;;;;;;;5016204;28;20215;-81
2023/11/19 01:52:55;;;;;;;2.05;1.33;;;;;;;;;;5009773;28;20175;-81
2023/11/19 01:55:21;;;;;;;3.67;1.33;;;;;;;;;;5007079;28;20214;-82
2023/11/19 01:57:48;;;;;;;5.40;1.75;;;;;;;;;;5021071;28;20186;-82
2023/11/19 02:00:15;;;;;;;3.60;2.08;;;;;;;;;;5025706;28;20587;-82
2023/11/19 02:02:43;;;;;;;4.00;1.58;;;;;;;;;;5026537;28;20186;-82
2023/11/19 02:05:09;;;;;;;6.38;2.05;;;;;;;;;;5018209;28;20209;-82
2023/11/19 02:07:35;;;;;;;3.22;1.55;;;;;;;;;;5027413;28;20200;-82
2023/11/19 02:10:02;;;;;;;4.75;1.92;;;;;;;;;;5021907;28;20177;-82
2023/11/19 02:12:28;;;;;;;7.43;1.88;;;;;;;;;;5015805;28;20181;-82
2023/11/19 02:14:54;;;;;;;2.72;1.55;;;;;;;;;;5042925;28;20208;-82
2023/11/19 02:17:34;;;;;;;5.93;1.98;;;;;;;;;;5022940;28;20210;-82
2023/11/19 02:20:00;;;;;;;7.40;1.55;;;;;;;;;;5018538;28;20186;-82
2023/11/19 02:22:26;;;;;;;2.43;1.40;;;;;;;;;;5009497;28;20660;-82
2023/11/19 02:24:56;;;;;;;7.05;2.10;;;;;;;;;;5040418;28;20425;-82
2023/11/19 02:27:45;;;;;;;6.07;1.65;;;;;;;;;;5038880;28;20201;-81
2023/11/19 02:30:14;;;;;;;7.82;2.33;;;;;;;;;;5012359;28;20317;-82
2023/11/19 02:32:41;;;;;;;7.07;3.00;;;;;;;;;;5029676;28;20645;-82
2023/11/19 02:35:11;;;;;;;8.05;2.55;;;;;;;;;;5007188;28;20223;-83
2023/11/19 02:37:37;;;;;;;5.32;1.95;;;;;;;;;;5025473;28;20186;-83
2023/11/19 02:40:05;;;;;;;8.57;2.47;;;;;;;;;;5034079;28;20544;-82
2023/11/19 02:42:31;;;;;;;7.38;2.17;;;;;;;;;;5023290;28;20281;-82
2023/11/19 02:44:57;;;;;;;16.55;3.10;;;;;;;;;;5030607;28;20186;-82
2023/11/19 02:47:23;;;;;;;5.27;2.13;;;;;;;;;;4995559;28;20193;-82
2023/11/19 02:49:50;;;;;;;7.30;2.53;;;;;;;;;;5001020;28;20443;-81
2023/11/19 02:52:16;;;;;;;9.65;2.40;;;;;;;;;;5018947;28;20188;-82
2023/11/19 02:54:43;;;;;;;4.10;1.83;;;;;;;;;;5046241;28;20292;-82
2023/11/19 02:57:11;;;;;;;7.55;2.33;;;;;;;;;;5043681;28;20704;-85
2023/11/19 02:59:39;;;;;;;9.02;2.17;;;;;;;;;;5019915;28;20189;-82
2023/11/19 03:02:15;;;;;;;12.95;3.95;;;;;;;;;;5034329;28;20187;-83
2023/11/19 03:04:45;;;;;;;6.18;2.95;;;;;;;;;;5037223;28;20251;-83
2023/11/19 03:07:12;;;;;;;9.63;2.80;;;;;;;;;;5025944;28;20264;-86
2023/11/19 03:09:40;;;;;;;10.15;2.83;;;;;;;;;;5020298;28;20183;-83
2023/11/19 03:12:06;;;;;;;11.35;2.60;;;;;;;;;;4998228;28;20186;-82
2023/11/19 03:14:36;;;;;;;6.43;2.28;;;;;;;;;;5019925;28;20184;-83
2023/11/19 03:17:03;;;;;;;5.75;2.40;;;;;;;;;;5034566;28;20614;-82
2023/11/19 03:19:29;;;;;;;5.22;2.50;;;;;;;;;;5013768;28;20190;-82
2023/11/19 03:21:55;;;;;;;5.53;2.17;;;;;;;;;;5018609;28;20189;-83
2023/11/19 03:24:21;;;;;;;8.75;3.00;;;;;;;;;;5035061;28;20180;-82
2023/11/19 03:26:50;;;;;;;10.40;3.03;;;;;;;;;;5025883;28;20711;-83
2023/11/19 03:29:16;;;;;;;9.48;2.50;;;;;;;;;;5003696;28;20430;-83
2023/11/19 03:31:43;;;;;;;10.13;2.27;;;;;;;;;;5028486;28;20209;-83
2023/11/19 03:34:09;;;;;;;13.40;3.75;;;;;;;;;;5042087;28;20424;-84
2023/11/19 03:36:35;;;;;;;9.40;2.60;;;;;;;;;;5002968;28;20214;-84
2023/11/19 03:39:02;;;;;;;9.02;2.47;;;;;;;;;;5011890;28;20189;-83
2023/11/19 03:41:28;;;;;;;9.90;2.40;;;;;;;;;;5013244;28;20193;-84
2023/11/19 03:43:53;;;;;;;6.90;2.50;;;;;;;;;;5002098;28;20190;-84
2023/11/19 03:46:20;;;;;;;9.37;2.90;;;;;;;;;;5003570;28;20437;-84
2023/11/19 03:48:47;;;;;;;6.40;2.25;;;;;;;;;;5003977;28;20428;-83
2023/11/19 03:51:15;;;;;;;8.30;2.30;;;;;;;;;;5039465;28;20178;-83
2023/11/19 03:53:42;;;;;;;9.43;2.50;;;;;;;;;;5032731;28;20233;-85
2023/11/19 03:56:09;;;;;;;10.65;2.70;;;;;;;;;;5027320;28;20201;-84
2023/11/19 03:58:35;;;;;;;7.32;2.25;;;;;;;;;;5008204;28;20276;-86
2023/11/19 04:01:02;;;;;;;10.18;2.92;;;;;;;;;;5037444;28;20179;-85
2023/11/19 04:03:28;;;;;;;8.82;4.38;;;;;;;;;;5033067;28;20193;-86
2023/11/19 04:05:54;;;;;;;8.65;1.98;;;;;;;;;;5045681;28;20193;-83
2023/11/19 04:08:20;;;;;;;10.07;1.83;;;;;;;;;;5043661;28;20205;-84
2023/11/19 04:10:46;;;;;;;11.50;2.97;;;;;;;;;;5002933;28;20424;-84
2023/11/19 04:13:12;;;;;;;8.37;1.87;;;;;;;;;;5012506;28;20787;-84
2023/11/19 04:15:38;;;;;;;14.80;2.90;;;;;;;;;;5024460;28;20456;-86
2023/11/19 04:18:04;;;;;;;5.65;2.25;;;;;;;;;;5037244;28;20575;-84
2023/11/19 04:20:31;;;;;;;8.20;2.33;;;;;;;;;;5010908;28;20192;-85
2023/11/19 04:22:57;;;;;;;10.30;3.30;;;;;;;;;;5028650;28;20489;-85
2023/11/19 04:25:26;;;;;;;17.35;2.75;;;;;;;;;;5024136;28;20545;-84
2023/11/19 04:27:52;;;;;;;7.72;2.50;;;;;;;;;;5021418;28;20190;-87
2023/11/19 04:30:18;;;;;;;11.00;3.20;;;;;;;;;;5021425;28;20231;-86
2023/11/19 04:32:44;;;;;;;14.60;2.70;;;;;;;;;;5045274;28;20605;-85
2023/11/19 04:35:10;;;;;;;7.03;2.53;;;;;;;;;;5027933;28;20182;-85
2023/11/19 04:37:36;;;;;;;12.40;2.50;;;;;;;;;;5046555;28;20272;-85
2023/11/19 04:40:03;;;;;;;9.02;2.45;;;;;;;;;;5046332;28;20232;-86
2023/11/19 04:42:29;;;;;;;12.35;2.85;;;;;;;;;;5010216;28;20277;-86
2023/11/19 04:44:55;;;;;;;13.85;2.85;;;;;;;;;;5022743;28;20276;-86
2023/11/19 04:47:21;;;;;;;10.55;2.55;;;;;;;;;;5028486;28;20284;-86
2023/11/19 04:49:48;;;;;;;13.07;2.60;;;;;;;;;;5031303;28;20222;-88
2023/11/19 04:52:14;;;;;;;8.95;2.10;;;;;;;;;;5035397;28;20178;-87
2023/11/19 04:54:43;;;;;;;8.32;2.60;;;;;;;;;;5025891;28;20312;-86
2023/11/19 04:57:10;;;;;;;9.82;3.25;;;;;;;;;;5025540;28;20198;-88
2023/11/19 04:59:37;;;;;;;12.52;2.95;;;;;;;;;;5009827;28;20181;-87
2023/11/19 05:02:03;;;;;;;15.15;2.65;;;;;;;;;;5040429;28;20517;-85
2023/11/19 05:04:29;;;;;;;10.75;3.08;;;;;;;;;;5041177;28;20223;-86
2023/11/19 05:06:55;;;;;;;11.60;3.35;;;;;;;;;;5049609;28;20192;-86
2023/11/19 05:09:22;;;;;;;6.47;2.17;;;;;;;;;;5023784;28;20182;-86
2023/11/19 05:11:48;;;;;;;7.95;2.50;;;;;;;;;;5042215;28;20209;-87
2023/11/19 05:14:15;;;;;;;11.02;2.10;;;;;;;;;;5013479;28;20178;-86
2023/11/19 05:16:43;;;;;;;9.10;3.17;;;;;;;;;;5035929;28;20599;-86
2023/11/19 05:19:09;;;;;;;9.27;2.92;;;;;;;;;;5002643;28;20194;-87
2023/11/19 05:21:35;;;;;;;9.70;2.80;;;;;;;;;;5032544;28;20554;-87
2023/11/19 05:24:04;;;;;;;16.48;3.28;;;;;;;;;;5020320;28;20440;-86
2023/11/19 05:26:30;;;;;;;12.23;2.88;;;;;;;;;;5024294;28;20186;-90
2023/11/19 05:28:56;;;;;;;17.02;3.00;;;;;;;;;;5021354;28;20182;-87
2023/11/19 05:31:22;;;;;;;11.30;2.40;;;;;;;;;;5023256;28;20201;-86
2023/11/19 05:33:48;;;;;;;17.63;2.53;;;;;;;;;;5030490;28;20420;-87
2023/11/19 05:41:47;;;;;;;17.83;3.40;;;;;;;;;;5024676;23;20304;-78
2023/11/19 05:44:13;;;;;;;8.27;2.07;;;;;;;;;;5015902;28;20179;-79
2023/11/19 05:46:42;;;;;;;14.65;3.13;;;;;;;;;;5018379;28;20402;-78
2023/11/19 05:49:08;;;;;;;13.80;2.97;;;;;;;;;;5017454;28;20281;-78
2023/11/19 05:51:37;;;;;;;15.83;3.70;;;;;;;;;;5013108;28;20792;-78
2023/11/19 05:54:03;;;;;;;10.50;2.53;;;;;;;;;;5009600;28;20444;-78
2023/11/19 05:56:32;;;;;;;11.55;3.10;;;;;;;;;;5012854;28;20312;-78
2023/11/19 05:59:00;;;;;;;15.70;3.45;;;;;;;;;;5015116;28;20265;-79
2023/11/19 06:01:26;;;;;;;10.50;2.85;;;;;;;;;;5010582;28;20556;-78
2023/11/19 06:03:52;;;;;;;11.93;2.95;;;;;;;;;;5010131;28;20183;-77
2023/11/19 06:06:18;;;;;;;13.37;2.90;;;;;;;;;;5008294;28;20606;-77
2023/11/19 06:08:44;;;;;;;16.52;3.22;;;;;;;;;;5015941;28;20525;-78
2023/11/19 06:11:18;;;;;;;11.05;2.60;;;;;;;;;;5023224;28;20346;-78
2023/11/19 06:13:44;;;;;;;5.63;2.05;;;;;;;;;;5010877;28;20210;-78
2023/11/19 06:16:10;;;;;;;15.65;2.70;;;;;;;;;;5011385;28;20305;-77
2023/11/19 06:18:37;;;;;;;18.30;4.27;;;;;;;;;;5015007;28;20226;-77
2023/11/19 06:21:03;;;;;;;19.25;2.83;;;;;;;;;;5010350;28;20446;-77
2023/11/19 06:23:29;;;;;;;12.63;2.92;;;;;;;;;;5008414;28;20175;-78
2023/11/19 06:25:55;;;;;;;13.07;4.00;;;;;;;;;;5017072;28;20269;-78
2023/11/19 06:28:21;;;;;;;9.40;2.40;;;;;;;;;;5015511;28;20276;-78
2023/11/19 06:30:47;;;;;;;12.77;2.78;;;;;;;;;;5012904;28;20912;-78
2023/11/19 06:33:14;;;;;;;9.73;2.63;;;;;;;;;;5014400;28;20211;-78
2023/11/19 06:35:40;;;;;;;20.05;3.95;;;;;;;;;;5011368;28;20466;-77
2023/11/19 06:38:06;;;;;;;16.05;3.10;;;;;;;;;;5014342;28;20195;-77
2023/11/19 06:40:33;;;;;;;16.70;4.03;;;;;;;;;;5019614;28;20206;-77
2023/11/19 06:42:59;;;;;;;18.33;4.95;;;;;;;;;;5015585;28;20198;-79
2023/11/19 06:45:25;;;;;;;15.30;2.88;;;;;;;;;;5007725;28;20183;-79
2023/11/19 06:47:51;;;;;;;9.33;3.20;;;;;;;;;;5013020;28;20238;-78
2023/11/19 06:50:19;;;;;;;17.27;3.47;;;;;;;;;;5014942;28;20846;-79
2023/11/19 06:52:45;;;;;;;11.43;2.85;;;;;;;;;;5010011;28;20179;-78
2023/11/19 06:55:11;;;;;;;8.82;2.65;;;;;;;;;;5013823;28;20216;-78
2023/11/19 06:57:37;;;;;;;12.63;3.00;;;;;;;;;;5013882;28;20572;-79
2023/11/19 07:00:05;;;;;;;12.00;3.85;;;;;;;;;;5006806;28;20238;-80
2023/11/19 07:02:31;;;;;;;13.40;3.15;;;;;;;;;;5012345;28;20185;-78
2023/11/19 07:04:57;;;;;;;18.95;3.33;;;;;;;;;;5005276;28;20211;-79
2023/11/19 07:07:23;;;;;;;15.20;4.05;;;;;;;;;;5015132;28;20190;-79
2023/11/19 07:09:50;;;;;;;16.10;3.88;;;;;;;;;;5009212;28;20191;-79
2023/11/19 07:12:16;;;;;;;11.98;3.47;;;;;;;;;;5012513;28;20175;-79
2023/11/19 07:14:42;;;;;;;13.00;3.47;;;;;;;;;;5014494;28;20221;-79
2023/11/19 07:17:11;;;;;;;11.77;2.85;;;;;;;;;;5002750;28;20969;-79
2023/11/19 07:19:38;;;;;;;15.65;3.13;;;;;;;;;;5010079;28;20183;-79
2023/11/19 07:22:04;;;;;;;13.80;2.67;;;;;;;;;;5006581;28;20199;-79
2023/11/19 07:24:31;;;;;;;25.33;4.50;;;;;;;;;;5007842;28;20657;-79
2023/11/19 07:26:57;;;;;;;20.00;3.45;;;;;;;;;;5011131;28;20201;-79
2023/11/19 07:29:23;;;;;;;12.80;3.60;;;;;;;;;;5017144;28;20178;-79
2023/11/19 07:31:49;;;;;;;22.95;3.65;;;;;;;;;;5015816;28;20197;-79
2023/11/19 07:34:15;;;;;;;21.05;4.65;;;;;;;;;;5012013;28;20182;-79
2023/11/19 07:36:41;;;;;;;14.18;2.58;;;;;;;;;;5018661;28;20210;-79
2023/11/19 07:39:08;;;;;;;12.48;3.20;;;;;;;;;;5011270;28;20185;-80
2023/11/19 07:41:34;;;;;;;12.82;2.83;;;;;;;;;;5012005;28;20736;-78
2023/11/19 07:44:01;;;;;;;16.13;3.97;;;;;;;;;;5005252;28;20179;-79
2023/11/19 07:46:27;;;;;;;15.20;3.85;;;;;;;;;;5006344;28;20184;-79
2023/11/19 07:48:53;;;;;;;19.08;3.75;;;;;;;;;;5011201;28;20236;-79
2023/11/19 07:51:19;;;;;;;21.83;4.72;;;;;;;;;;5014565;28;20185;-79
2023/11/19 07:53:45;;;;;;;24.63;3.80;;;;;;;;;;5017009;28;20186;-80
2023/11/19 07:56:11;;;;;;;16.50;3.60;;;;;;;;;;5013043;28;20690;-80
2023/11/19 07:58:37;;;;;;;27.10;3.97;;;;;;;;;;5014610;28;20406;-79
2023/11/19 08:01:03;;;;;;;18.90;3.40;;;;;;;;;;5016517;28;20706;-78
2023/11/19 08:03:34;;;;;;;20.50;4.57;;;;;;;;;;5011421;28;20763;-79
2023/11/19 08:06:00;;;;;;;17.30;4.90;;;;;;;;;;5014542;28;20289;-78
2023/11/19 08:08:26;;;;;;;17.25;4.78;;;;;;;;;;5021224;28;20178;-79
2023/11/19 08:10:52;;;;;;;15.15;3.92;;;;;;;;;;5013199;28;20178;-80
2023/11/19 08:13:20;;;;;;;13.13;2.80;;;;;;;;;;5012903;28;20611;-79
2023/11/19 08:15:46;;;;;;;13.57;4.00;;;;;;;;;;5011073;28;20215;-79
2023/11/19 08:18:13;;;;;;;17.30;4.15;;;;;;;;;;5010605;28;20195;-79
2023/11/19 08:20:39;;;;;;;18.88;3.60;;;;;;;;;;5007757;28;20261;-79
2023/11/19 08:23:05;;;;;;;18.70;4.70;;;;;;;;;;5018940;28;20590;-79
2023/11/19 08:25:33;;;;;;;18.38;3.83;;;;;;;;;;5008321;28;20460;-79
2023/11/19 08:27:59;;;;;;;15.20;3.45;;;;;;;;;;5010486;28;20183;-79
2023/11/19 08:30:25;;;;;;;20.90;4.33;;;;;;;;;;5014409;28;20198;-79
2023/11/19 08:32:51;;;;;;;18.53;3.23;;;;;;;;;;5008999;28;20491;-80
2023/11/19 08:35:17;;;;;;;15.67;3.10;;;;;;;;;;5011616;28;20436;-79
2023/11/19 08:37:45;;;;;;;13.68;3.00;;;;;;;;;;5016700;28;20417;-79
2023/11/19 08:40:12;;;;;;;14.70;2.90;;;;;;;;;;5012396;28;20244;-79
2023/11/19 08:42:39;;;;;;;14.18;3.75;;;;;;;;;;5011018;28;20234;-80
2023/11/19 08:45:05;;;;;;;19.17;4.13;;;;;;;;;;5015310;28;20655;-79
2023/11/19 08:47:31;;;;;;;22.25;4.13;;;;;;;;;;5005142;28;20210;-79
2023/11/19 08:49:57;;;;;;;9.60;4.00;;;;;;;;;;5017774;28;20187;-79
2023/11/19 08:52:23;;;;;;;22.07;4.80;;;;;;;;;;5018111;28;20943;-79
2023/11/19 08:54:49;;;;;;;25.23;5.50;;;;;;;;;;5011839;28;20434;-79
2023/11/19 08:57:15;;;;;;;20.70;3.23;;;;;;;;;;5022943;28;20559;-80
2023/11/19 08:59:41;;;;;;;14.40;4.30;;;;;;;;;;5009384;28;20433;-79
2023/11/19 09:02:07;;;;;;;14.50;3.78;;;;;;;;;;5020800;28;20429;-79
2023/11/19 09:04:34;;;;;;;12.25;3.65;;;;;;;;;;5014272;28;20218;-79
2023/11/19 09:07:00;;;;;;;13.98;4.00;;;;;;;;;;5003196;28;20191;-80
2023/11/19 09:09:26;;;;;;;19.77;3.90;;;;;;;;;;5010179;28;20234;-80
2023/11/19 09:11:52;;;;;;;19.40;4.53;;;;;;;;;;5016371;28;20429;-79
2023/11/19 09:14:26;;;;;;;16.02;3.58;;;;;;;;;;5010951;28;20914;-80
2023/11/19 09:16:53;;;;;;;17.50;4.20;;;;;;;;;;5016361;28;20209;-79
2023/11/19 09:19:19;;;;;;;10.35;3.10;;;;;;;;;;5015753;28;20191;-79
2023/11/19 09:21:45;;;;;;;15.65;3.92;;;;;;;;;;5020019;28;20677;-81
2023/11/19 09:24:11;;;;;;;25.43;4.13;;;;;;;;;;5012518;28;20190;-80
2023/11/19 09:26:39;;;;;;;18.30;5.20;;;;;;;;;;5014128;28;20441;-80
2023/11/19 09:29:05;;;;;;;21.17;3.85;;;;;;;;;;5015781;28;20477;-80
2023/11/19 09:31:32;;;;;;;17.10;4.17;;;;;;;;;;5017503;28;20246;-80
2023/11/19 09:33:58;;;;;;;18.42;5.22;;;;;;;;;;5013420;28;20415;-79
2023/11/19 09:36:24;;;;;;;14.33;3.67;;;;;;;;;;5016975;28;20289;-79
2023/11/19 09:38:50;;;;;;;23.63;4.50;;;;;;;;;;5003421;28;20521;-79
2023/11/19 09:41:16;;;;;;;15.30;3.10;;;;;;;;;;5013814;28;20524;-79
2023/11/19 09:43:42;;;;;;;20.67;4.97;;;;;;;;;;5015081;28;20417;-80
2023/11/19 09:46:13;;;;;;;11.40;3.87;;;;;;;;;;5014203;28;20433;-80
2023/11/19 09:48:43;;;;;;;13.43;3.73;;;;;;;;;;5017120;28;20471;-80
2023/11/19 09:51:11;;;;;;;11.50;3.50;;;;;;;;;;5011419;28;20462;-81
2023/11/19 09:53:38;;;;;;;15.37;3.83;;;;;;;;;;5018158;28;20461;-80
2023/11/19 09:56:05;;;;;;;19.90;4.60;;;;;;;;;;5001803;28;20987;-79
2023/11/19 09:58:31;;;;;;;17.97;3.90;;;;;;;;;;5008586;28;20426;-81
2023/11/19 10:01:02;;;;;;;18.80;4.17;;;;;;;;;;5009278;28;20446;-80
2023/11/19 10:03:29;;;;;;;14.13;3.10;;;;;;;;;;5013020;28;20784;-80
2023/11/19 10:05:56;;;;;;;9.87;3.07;;;;;;;;;;5014498;28;20466;-79
2023/11/19 10:08:22;;;;;;;23.20;4.60;;;;;;;;;;5023055;28;20425;-79
2023/11/19 10:10:48;;;;;;;16.03;4.00;;;;;;;;;;5013635;28;20447;-78
2023/11/19 10:13:14;;;;;;;21.57;3.13;;;;;;;;;;5014583;28;20466;-79
2023/11/19 10:15:41;;;;;;;20.87;4.10;;;;;;;;;;5013081;28;20544;-80
2023/11/19 10:18:07;;;;;;;16.73;3.63;;;;;;;;;;5014406;28;20555;-79
2023/11/19 10:20:36;;;;;;;18.90;5.93;;;;;;;;;;5006133;28;20479;-79
2023/11/19 10:23:03;;;;;;;17.63;3.67;;;;;;;;;;5010437;28;20521;-79
2023/11/19 10:25:30;;;;;;;12.60;4.00;;;;;;;;;;5017600;28;20206;-78
2023/11/19 10:27:56;;;;;;;18.93;3.50;;;;;;;;;;5017130;28;20946;-78
2023/11/19 10:30:24;;;;;;;11.40;3.53;;;;;;;;;;5013666;28;20434;-80
2023/11/19 10:33:22;;;;;;;17.50;3.53;;;;;;;;;;5017596;28;20409;-81
2023/11/19 10:35:58;;;;;;;15.13;3.60;;;;;;;;;;4989909;28;20461;-79
2023/11/19 10:38:24;;;;;;;20.50;4.90;;;;;;;;;;5013971;28;20486;-80
2023/11/19 10:40:51;;;;;;;17.83;4.30;;;;;;;;;;5008111;28;20492;-80
2023/11/19 10:43:18;;;;;;;19.03;3.60;;;;;;;;;;5015109;28;20433;-79
2023/11/19 10:45:43;;;;;;;18.03;5.30;;;;;;;;;;5014906;28;20450;-79
2023/11/19 10:48:10;;;;;;;11.97;3.50;;;;;;;;;;5009769;28;20418;-79
2023/11/19 10:50:37;;;;;;;18.37;3.80;;;;;;;;;;5016386;28;20426;-79
2023/11/19 10:53:03;;;;;;;12.95;3.40;;;;;;;;;;5012148;28;20431;-79
2023/11/19 10:55:31;;;;;;;11.03;3.07;;;;;;;;;;5015278;28;20178;-79
2023/11/19 10:57:59;;;;;;;17.53;3.47;;;;;;;;;;5009248;28;20432;-79
2023/11/19 11:00:26;;;;;;;11.83;3.47;;;;;;;;;;5015038;28;20952;-79
2023/11/19 11:02:55;;;;;;;14.13;3.05;;;;;;;;;;5007572;28;20911;-81
2023/11/19 11:05:22;;;;;;;12.43;3.43;;;;;;;;;;5009589;28;20174;-80
2023/11/19 11:07:49;;;;;;;14.90;4.10;;;;;;;;;;5014500;28;20417;-81
2023/11/19 11:10:17;;;;;;;16.10;4.30;;;;;;;;;;5011764;28;20438;-80
2023/11/19 11:12:44;;;;;;;14.30;4.23;;;;;;;;;;5014557;28;20460;-79
2023/11/19 11:15:12;;;;;;;15.57;3.67;;;;;;;;;;5015208;28;20508;-79
2023/11/19 11:17:39;;;;;;;12.90;3.03;;;;;;;;;;4998354;28;20469;-80
2023/11/19 11:20:06;;;;;;;16.60;3.63;;;;;;;;;;5015688;28;20405;-82
2023/11/19 11:22:39;;;;;;;8.80;2.53;;;;;;;;;;5010236;28;20907;-78
2023/11/19 11:25:16;;;;;;;11.00;2.80;;;;;;;;;;5018496;28;20428;-79
2023/11/19 11:27:51;;;;;;;14.23;3.58;;;;;;;;;;5009365;28;20940;-79
2023/11/19 11:30:30;;;;;;;10.97;3.27;;;;;;;;;;5015332;28;20177;-79
2023/11/19 11:33:19;;;;;;;13.00;2.40;;;;;;;;;;5011031;28;20538;-80
2023/11/19 11:35:53;;;;;;;13.77;3.73;;;;;;;;;;5015025;28;20469;-81
2023/11/19 11:38:24;;;;;;;13.63;3.07;;;;;;;;;;5015681;28;20472;-80
2023/11/19 11:41:08;;;;;;;14.47;3.60;;;;;;;;;;5008907;28;20544;-80
2023/11/19 11:43:46;;;;;;;14.90;3.00;;;;;;;;;;5006698;28;20422;-79
2023/11/19 11:46:36;;;;;;;11.07;3.15;;;;;;;;;;5006364;28;21008;-79
2023/11/19 11:49:03;;;;;;;10.48;2.70;;;;;;;;;;5003885;28;20197;-80
2023/11/19 11:51:44;;;;;;;8.90;2.57;;;;;;;;;;5006791;28;20516;-81
2023/11/19 11:54:31;;;;;;;8.73;2.77;;;;;;;;;;5011230;28;20909;-81
2023/11/19 11:57:04;;;;;;;8.97;2.20;;;;;;;;;;5012347;28;20457;-80
2023/11/19 11:59:42;;;;;;;6.37;2.03;;;;;;;;;;5007056;28;20434;-80
2023/11/19 12:02:08;;;;;;;6.70;1.90;;;;;;;;;;5018799;28;20429;-79
2023/11/19 12:04:35;;;;;;;11.50;2.67;;;;;;;;;;5010520;28;20868;-80
2023/11/19 12:07:05;;;;;;;14.53;3.07;;;;;;;;;;5014457;28;20811;-79
2023/11/19 12:09:31;;;;;;;14.30;2.70;;;;;;;;;;4992895;28;20436;-81
2023/11/19 12:12:08;;;;;;;13.50;3.07;;;;;;;;;;5017320;28;20421;-80
2023/11/19 12:14:53;;;;;;;11.60;2.60;;;;;;;;;;5007076;28;20418;-81
2023/11/19 12:17:34;;;;;;;12.20;3.50;;;;;;;;;;5015075;28;20465;-81
2023/11/19 12:20:03;;;;;;;12.90;3.20;;;;;;;;;;5022167;28;20424;-81
2023/11/19 12:22:29;;;;;;;14.97;5.90;;;;;;;;;;5008767;28;20413;-81
2023/11/19 12:24:56;;;;;;;11.37;3.67;;;;;;;;;;5014031;28;20422;-81
2023/11/19 12:27:22;;;;;;;12.60;3.20;;;;;;;;;;5008611;28;21044;-81
2023/11/19 12:29:48;;;;;;;12.83;2.60;;;;;;;;;;5018095;28;20822;-81
2023/11/19 12:32:14;;;;;;;14.70;3.33;;;;;;;;;;5011820;28;20435;-81
2023/11/19 12:34:40;;;;;;;8.10;2.77;;;;;;;;;;5020983;28;20734;-80
2023/11/19 12:37:08;;;;;;;7.17;2.23;;;;;;;;;;5010342;28;20509;-81
2023/11/19 12:39:34;;;;;;;11.60;3.07;;;;;;;;;;5014404;28;20513;-80
2023/11/19 12:42:00;;;;;;;7.17;2.40;;;;;;;;;;5009809;28;20521;-83
2023/11/19 12:44:26;;;;;;;14.23;5.37;;;;;;;;;;5017318;28;20422;-81
2023/11/19 12:47:06;;;;;;;11.50;2.93;;;;;;;;;;5008661;28;20441;-81
2023/11/19 12:49:32;;;;;;;8.83;2.13;;;;;;;;;;5021627;28;20414;-80
2023/11/19 12:51:58;;;;;;;9.32;3.45;;;;;;;;;;5013899;28;20430;-80
2023/11/19 12:54:34;;;;;;;9.77;2.53;;;;;;;;;;5021298;28;20178;-80
2023/11/19 12:57:00;;;;;;;12.50;2.57;;;;;;;;;;5019784;28;20475;-80
2023/11/19 12:59:27;;;;;;;10.57;2.60;;;;;;;;;;5011560;28;20430;-80
2023/11/19 13:01:59;;;;;;;10.90;2.10;;;;;;;;;;5022206;28;20416;-81
2023/11/19 13:04:30;;;;;;;9.43;2.17;;;;;;;;;;5012662;28;20497;-82
2023/11/19 13:06:56;;;;;;;18.63;3.70;;;;;;;;;;5020476;28;20427;-79
2023/11/19 13:09:24;;;;;;;8.30;2.70;;;;;;;;;;5014184;28;20435;-81
2023/11/19 13:11:50;;;;;;;14.77;2.63;;;;;;;;;;5007299;28;20465;-80
2023/11/19 13:14:16;;;;;;;19.17;3.40;;;;;;;;;;5012116;28;20857;-80
2023/11/19 13:16:42;;;;;;;13.10;4.37;;;;;;;;;;5011165;28;20830;-78
2023/11/19 13:19:09;;;;;;;10.00;3.30;;;;;;;;;;5014482;28;20791;-80
2023/11/19 13:21:35;;;;;;;11.43;3.30;;;;;;;;;;5016866;28;20483;-79
2023/11/19 13:24:01;;;;;;;13.57;3.30;;;;;;;;;;5016970;28;20893;-80
2023/11/19 13:26:27;;;;;;;8.13;2.90;;;;;;;;;;5015910;28;20183;-80
2023/11/19 13:28:53;;;;;;;13.20;3.40;;;;;;;;;;5018424;28;20487;-80
2023/11/19 13:31:19;;;;;;;14.77;3.25;;;;;;;;;;5007884;28;20887;-80
2023/11/19 13:33:45;;;;;;;10.77;3.10;;;;;;;;;;5017821;28;20206;-80
2023/11/19 13:36:12;;;;;;;20.57;4.17;;;;;;;;;;5016009;28;20539;-80
2023/11/19 13:38:38;;;;;;;7.22;2.40;;;;;;;;;;5013988;28;20427;-79
2023/11/19 13:41:04;;;;;;;12.32;2.90;;;;;;;;;;5021822;28;20245;-82
2023/11/19 13:43:30;;;;;;;14.23;2.90;;;;;;;;;;5011608;28;20540;-81
2023/11/19 13:45:58;;;;;;;15.83;3.03;;;;;;;;;;5010555;28;20485;-80
2023/11/19 13:48:24;;;;;;;16.10;4.03;;;;;;;;;;5007021;28;20473;-81
2023/11/19 13:50:50;;;;;;;13.70;3.27;;;;;;;;;;5023844;28;20468;-80
2023/11/19 13:53:16;;;;;;;18.97;3.50;;;;;;;;;;5010294;28;20426;-81
2023/11/19 13:55:43;;;;;;;14.23;3.00;;;;;;;;;;5018498;28;20480;-80
2023/11/19 13:58:09;;;;;;;17.27;3.50;;;;;;;;;;5008060;28;20886;-82
2023/11/19 14:00:35;;;;;;;8.70;2.97;;;;;;;;;;5014531;28;20450;-80
2023/11/19 14:03:02;;;;;;;13.50;3.03;;;;;;;;;;5021335;28;20794;-81
2023/11/19 14:05:28;;;;;;;14.20;2.73;;;;;;;;;;5012976;28;20493;-80
2023/11/19 14:07:56;;;;;;;13.00;3.43;;;;;;;;;;5016873;28;20887;-82
2023/11/19 14:10:22;;;;;;;17.60;3.40;;;;;;;;;;5011803;28;20418;-82
2023/11/19 14:12:49;;;;;;;11.37;3.03;;;;;;;;;;5009557;28;20882;-82
2023/11/19 14:15:19;;;;;;;10.90;3.27;;;;;;;;;;5019570;28;20408;-82
2023/11/19 14:17:45;;;;;;;15.57;3.20;;;;;;;;;;5010028;28;20988;-79
2023/11/19 14:20:15;;;;;;;10.00;2.80;;;;;;;;;;5025703;28;20413;-81
2023/11/19 14:22:42;;;;;;;6.43;1.77;;;;;;;;;;5012544;28;20413;-80
2023/11/19 14:25:10;;;;;;;7.37;2.20;;;;;;;;;;5017938;28;20496;-81
2023/11/19 14:27:37;;;;;;;8.73;2.00;;;;;;;;;;5015541;28;20468;-81
2023/11/19 14:30:04;;;;;;;7.50;2.43;;;;;;;;;;5009050;28;20422;-80
2023/11/19 14:32:30;;;;;;;11.00;2.80;;;;;;;;;;5021994;28;20420;-79
2023/11/19 14:34:56;;;;;;;15.32;2.67;;;;;;;;;;5016898;28;20460;-81
2023/11/19 14:37:22;;;;;;;12.13;3.07;;;;;;;;;;5019244;28;20210;-81
2023/11/19 14:39:50;;;;;;;13.20;3.20;;;;;;;;;;5012055;28;20893;-82
2023/11/19 14:42:16;;;;;;;13.77;3.07;;;;;;;;;;5012995;28;20501;-82